Brewerton, New York
Current Conditions -  °F | °C
As of 5:54 PM on Thursday 20 Nov 2014 (Local Time) from KSYR Reporting Station
Overcast Overcast  
Wind Chill: 16°   Ceiling: 5000
Heat Index: 26°   Visibility: 10mi
Dew Point: 20°   Wind: 10mph
Humidity: 78%   Direction: 230°SW
Pressure: 29.9"   Gusts: NA
Location:  43.24°N, 76.14°W
Report Text: KSYR 202254Z 23009KT 10SM BKN050 OVC070 M03/M07 A2990 RMK AO2 SNE48 SLP129 P0000 T10331067 $
Loading
Personal Weather Stations






























Interactive Weather Map New forecast layout! Learn more

10-Day Weather Forecast

Advertisements
Track Severe Weather on mobile